Time;durP1;ratioP1;P1;durP2;ratioP2;P2;SDS_P1;SDS_P2;PMS_P1;PMS_P2;Temp;Humidity;BMP_temperature;BMP_pressure;BME280_temperature;BME280_humidity;BME280_pressure;Samples;Min_cycle;Max_cycle;Signal;HPM_P1;HPM_P2
2023/08/16 00:01:29;;;;;;;2.30;1.50;;;;;;;;;;5153559;27;20058;-73
2023/08/16 00:03:59;;;;;;;4.97;1.30;;;;;;;;;;5153861;27;20077;-73
2023/08/16 00:06:25;;;;;;;3.83;2.13;;;;;;;;;;5153971;27;20038;-73
2023/08/16 00:08:58;;;;;;;4.07;1.60;;;;;;;;;;5151975;27;20516;-73
2023/08/16 00:11:29;;;;;;;2.53;1.38;;;;;;;;;;5153274;27;20076;-73
2023/08/16 00:13:56;;;;;;;2.75;1.30;;;;;;;;;;5153578;27;20053;-73
2023/08/16 00:16:23;;;;;;;2.70;1.25;;;;;;;;;;5153669;27;20073;-73
2023/08/16 00:18:50;;;;;;;1.80;1.30;;;;;;;;;;5153476;27;20134;-73
2023/08/16 00:21:17;;;;;;;3.05;1.20;;;;;;;;;;5153256;27;20109;-73
2023/08/16 00:23:44;;;;;;;5.72;1.30;;;;;;;;;;5153457;27;20061;-73
2023/08/16 00:26:11;;;;;;;2.42;1.23;;;;;;;;;;5153334;27;20046;-73
2023/08/16 00:28:37;;;;;;;2.40;1.20;;;;;;;;;;5153407;27;20042;-73
2023/08/16 00:31:04;;;;;;;5.38;1.30;;;;;;;;;;5152662;27;20039;-73
2023/08/16 00:33:31;;;;;;;5.57;1.40;;;;;;;;;;5153081;27;20090;-73
2023/08/16 00:35:57;;;;;;;1.83;1.27;;;;;;;;;;5153142;27;20565;-73
2023/08/16 00:38:25;;;;;;;2.42;1.30;;;;;;;;;;5153381;27;20043;-73
2023/08/16 00:40:52;;;;;;;2.63;1.20;;;;;;;;;;5152686;27;20038;-73
2023/08/16 00:43:19;;;;;;;3.25;1.38;;;;;;;;;;5153419;27;20042;-73
2023/08/16 00:45:48;;;;;;;3.63;1.35;;;;;;;;;;5152876;27;20039;-73
2023/08/16 00:48:15;;;;;;;2.42;1.15;;;;;;;;;;5152982;27;20038;-74
2023/08/16 00:50:42;;;;;;;2.88;1.30;;;;;;;;;;5152821;27;20047;-74
2023/08/16 00:53:09;;;;;;;3.38;1.38;;;;;;;;;;5152856;27;20581;-74
2023/08/16 00:55:36;;;;;;;2.35;1.20;;;;;;;;;;5152786;27;20080;-74
2023/08/16 00:58:03;;;;;;;3.05;1.20;;;;;;;;;;5153075;27;20042;-74
2023/08/16 01:00:34;;;;;;;2.10;1.25;;;;;;;;;;5152165;27;20050;-74
2023/08/16 01:03:00;;;;;;;;;;;;;;;;;;5153067;27;20043;-74
2023/08/16 01:05:27;;;;;;;2.85;1.40;;;;;;;;;;5152230;27;19941;-74
2023/08/16 01:07:54;;;;;;;3.80;1.30;;;;;;;;;;5152480;27;20053;-73
2023/08/16 01:10:31;;;;;;;4.22;1.48;;;;;;;;;;5151993;27;20046;-74
2023/08/16 01:13:21;;;;;;;2.08;1.30;;;;;;;;;;5152845;27;20048;-74
2023/08/16 01:15:49;;;;;;;3.33;1.27;;;;;;;;;;5152410;27;20069;-73
2023/08/16 01:18:17;;;;;;;1.63;1.15;;;;;;;;;;5152687;27;20049;-73
2023/08/16 01:20:47;;;;;;;2.40;1.25;;;;;;;;;;5151881;27;20043;-73
2023/08/16 01:23:37;;;;;;;1.80;1.15;;;;;;;;;;5152009;27;20693;-73
2023/08/16 01:26:21;;;;;;;1.48;1.00;;;;;;;;;;5152179;27;20102;-74
2023/08/16 01:28:49;;;;;;;4.07;1.30;;;;;;;;;;5152475;27;20045;-73
2023/08/16 01:31:16;;;;;;;2.58;1.30;;;;;;;;;;5151904;27;20043;-74
2023/08/16 01:33:43;;;;;;;2.42;1.20;;;;;;;;;;5152218;27;20049;-73
2023/08/16 01:36:09;;;;;;;2.17;1.13;;;;;;;;;;5151996;27;20523;-73
2023/08/16 01:38:36;;;;;;;2.28;1.25;;;;;;;;;;5151916;27;20050;-74
2023/08/16 01:41:13;;;;;;;2.58;1.25;;;;;;;;;;5151382;27;20078;-73
2023/08/16 01:43:43;;;;;;;1.80;1.00;;;;;;;;;;5152140;27;20049;-73
2023/08/16 01:46:10;;;;;;;2.15;1.17;;;;;;;;;;5151484;27;20047;-73
2023/08/16 01:48:38;;;;;;;2.33;1.13;;;;;;;;;;5152213;27;20125;-73
2023/08/16 01:51:05;;;;;;;4.07;1.20;;;;;;;;;;5151661;27;20046;-74
2023/08/16 01:53:36;;;;;;;3.10;1.17;;;;;;;;;;5151820;27;20046;-73
2023/08/16 01:56:02;;;;;;;;;;;;;;;;;;5151983;27;20039;-73
2023/08/16 01:58:29;;;;;;;2.03;1.10;;;;;;;;;;5151278;27;20315;-74
2023/08/16 02:00:56;;;;;;;1.77;1.10;;;;;;;;;;5151094;27;20046;-73
2023/08/16 02:03:22;;;;;;;3.53;1.30;;;;;;;;;;5150362;27;20039;-73
2023/08/16 02:05:49;;;;;;;2.33;1.15;;;;;;;;;;5151399;27;20042;-73
2023/08/16 02:08:16;;;;;;;2.30;1.27;;;;;;;;;;5151509;27;20038;-73
2023/08/16 02:10:43;;;;;;;1.30;1.00;;;;;;;;;;5151122;27;20182;-74
2023/08/16 02:13:09;;;;;;;1.20;0.93;;;;;;;;;;5151293;27;20053;-73
2023/08/16 02:15:36;;;;;;;1.70;1.17;;;;;;;;;;5151110;27;20142;-73
2023/08/16 02:18:03;;;;;;;3.50;1.10;;;;;;;;;;5151075;27;20458;-74
2023/08/16 02:20:30;;;;;;;2.75;1.10;;;;;;;;;;5150798;27;20126;-73
2023/08/16 02:22:56;;;;;;;1.85;1.05;;;;;;;;;;5150997;27;20045;-73
2023/08/16 02:25:23;;;;;;;3.63;1.00;;;;;;;;;;5151436;27;20043;-73
2023/08/16 02:27:50;;;;;;;1.77;1.17;;;;;;;;;;5150846;27;20043;-73
2023/08/16 02:30:16;;;;;;;2.22;1.08;;;;;;;;;;5150998;27;20427;-73
2023/08/16 02:32:43;;;;;;;2.85;1.20;;;;;;;;;;5150434;27;20050;-73
2023/08/16 02:35:10;;;;;;;2.70;0.93;;;;;;;;;;5150881;27;20138;-73
2023/08/16 02:37:38;;;;;;;2.20;1.10;;;;;;;;;;5150766;27;20043;-73
2023/08/16 02:40:05;;;;;;;2.30;1.00;;;;;;;;;;5151208;27;20067;-73
2023/08/16 02:42:34;;;;;;;3.20;1.20;;;;;;;;;;5150816;27;20050;-73
2023/08/16 02:45:01;;;;;;;1.80;1.10;;;;;;;;;;5150674;27;20057;-73
2023/08/16 02:47:28;;;;;;;1.88;1.20;;;;;;;;;;5150875;27;20046;-73
2023/08/16 02:49:54;;;;;;;1.83;0.95;;;;;;;;;;5151022;27;20259;-73
2023/08/16 02:52:21;;;;;;;2.28;1.35;;;;;;;;;;5150223;27;20042;-73
2023/08/16 02:54:48;;;;;;;3.88;1.10;;;;;;;;;;5149676;27;20045;-73
2023/08/16 02:57:16;;;;;;;1.60;1.02;;;;;;;;;;5150558;27;20409;-73
2023/08/16 02:59:47;;;;;;;1.33;1.02;;;;;;;;;;5151095;27;20365;-73
2023/08/16 03:02:14;;;;;;;3.28;1.35;;;;;;;;;;5150371;27;20051;-73
2023/08/16 03:04:41;;;;;;;2.95;1.20;;;;;;;;;;5150904;27;20073;-73
2023/08/16 03:07:11;;;;;;;1.90;1.10;;;;;;;;;;5150531;27;20071;-73
2023/08/16 03:09:41;;;;;;;2.25;1.10;;;;;;;;;;5150596;27;20066;-74
2023/08/16 03:12:07;;;;;;;1.52;1.10;;;;;;;;;;5150373;27;20050;-73
2023/08/16 03:14:34;;;;;;;2.67;0.90;;;;;;;;;;5150990;27;20047;-73
2023/08/16 03:17:01;;;;;;;1.63;1.25;;;;;;;;;;5150398;27;20042;-73
2023/08/16 03:19:28;;;;;;;4.13;1.75;;;;;;;;;;5150662;27;20068;-73
2023/08/16 03:21:58;;;;;;;3.83;1.27;;;;;;;;;;5150069;27;20039;-73
2023/08/16 03:24:26;;;;;;;2.20;1.33;;;;;;;;;;5150622;27;20043;-73
2023/08/16 03:26:53;;;;;;;2.53;1.30;;;;;;;;;;5150001;27;20419;-73
2023/08/16 03:29:19;;;;;;;2.88;1.17;;;;;;;;;;5150633;27;20039;-73
2023/08/16 03:31:47;;;;;;;2.03;1.10;;;;;;;;;;5151321;27;20134;-73
2023/08/16 03:34:14;;;;;;;2.67;1.58;;;;;;;;;;5154651;27;20038;-73
2023/08/16 03:36:40;;;;;;;2.33;1.20;;;;;;;;;;5154194;27;20039;-74
2023/08/16 03:39:07;;;;;;;2.47;1.30;;;;;;;;;;5154666;27;20060;-73
2023/08/16 03:41:34;;;;;;;2.65;1.40;;;;;;;;;;5153850;27;20604;-74
2023/08/16 03:44:01;;;;;;;2.70;1.42;;;;;;;;;;5154101;27;20649;-73
2023/08/16 03:46:28;;;;;;;2.08;1.30;;;;;;;;;;5154310;27;20133;-73
2023/08/16 03:48:55;;;;;;;2.45;1.30;;;;;;;;;;5154196;27;20089;-73
2023/08/16 03:51:22;;;;;;;2.85;1.20;;;;;;;;;;5154007;27;20046;-73
2023/08/16 03:53:49;;;;;;;1.83;1.13;;;;;;;;;;5152335;27;20057;-73
2023/08/16 03:56:15;;;;;;;3.28;1.20;;;;;;;;;;5154136;27;20047;-74
2023/08/16 03:58:42;;;;;;;3.13;1.48;;;;;;;;;;5153566;27;20054;-74
2023/08/16 04:01:09;;;;;;;2.50;1.20;;;;;;;;;;5153717;27;20049;-74
2023/08/16 04:03:35;;;;;;;2.53;1.33;;;;;;;;;;5153114;27;20141;-73
2023/08/16 04:06:02;;;;;;;3.55;1.40;;;;;;;;;;5153748;27;20118;-73
2023/08/16 04:08:29;;;;;;;3.60;1.58;;;;;;;;;;5153499;27;20074;-73
2023/08/16 04:10:55;;;;;;;1.67;1.17;;;;;;;;;;5153470;27;20051;-73
2023/08/16 04:13:22;;;;;;;2.05;1.33;;;;;;;;;;5153443;27;20452;-73
2023/08/16 04:15:49;;;;;;;3.35;1.38;;;;;;;;;;5153521;27;20053;-73
2023/08/16 04:18:15;;;;;;;2.95;1.40;;;;;;;;;;5153255;27;20038;-73
2023/08/16 04:20:42;;;;;;;2.60;1.50;;;;;;;;;;5153407;27;20448;-73
2023/08/16 04:23:10;;;;;;;4.32;1.27;;;;;;;;;;5152348;27;20043;-73
2023/08/16 04:25:36;;;;;;;2.30;1.23;;;;;;;;;;5153452;27;20054;-73
2023/08/16 04:28:03;;;;;;;2.45;1.27;;;;;;;;;;5153429;27;20046;-74
2023/08/16 04:30:30;;;;;;;2.30;1.50;;;;;;;;;;5153233;27;20494;-73
2023/08/16 04:32:56;;;;;;;2.65;1.50;;;;;;;;;;5152579;27;20054;-73
2023/08/16 04:35:23;;;;;;;2.20;1.20;;;;;;;;;;5153064;27;20057;-73
2023/08/16 04:37:50;;;;;;;3.17;1.35;;;;;;;;;;5152740;27;20058;-73
2023/08/16 04:40:17;;;;;;;2.88;1.45;;;;;;;;;;5153113;27;20043;-73
2023/08/16 04:42:44;;;;;;;2.25;1.15;;;;;;;;;;5152081;27;20500;-73
2023/08/16 04:45:11;;;;;;;3.78;1.50;;;;;;;;;;5153228;27;20063;-73
2023/08/16 04:47:38;;;;;;;3.60;1.30;;;;;;;;;;5152858;27;20069;-73
2023/08/16 04:50:06;;;;;;;3.28;1.40;;;;;;;;;;5153293;27;20054;-73
2023/08/16 04:52:35;;;;;;;1.83;1.40;;;;;;;;;;5152402;27;20046;-73
2023/08/16 04:55:02;;;;;;;2.70;1.30;;;;;;;;;;5152751;27;20566;-73
2023/08/16 04:57:28;;;;;;;2.42;1.38;;;;;;;;;;5152753;27;20047;-73
2023/08/16 04:59:56;;;;;;;2.45;1.40;;;;;;;;;;5152788;27;20054;-73
2023/08/16 05:02:22;;;;;;;4.70;1.35;;;;;;;;;;5152227;27;20420;-73
2023/08/16 05:04:49;;;;;;;3.90;1.80;;;;;;;;;;5152806;27;20046;-73
2023/08/16 05:07:16;;;;;;;2.60;1.60;;;;;;;;;;5152747;27;20520;-74
2023/08/16 05:09:42;;;;;;;2.92;1.50;;;;;;;;;;5152275;27;20537;-73
2023/08/16 05:12:09;;;;;;;2.45;1.50;;;;;;;;;;5152130;27;20047;-74
2023/08/16 05:14:36;;;;;;;2.33;1.40;;;;;;;;;;5152000;27;20045;-73
2023/08/16 05:17:03;;;;;;;2.42;1.35;;;;;;;;;;5152497;27;20073;-73
2023/08/16 05:19:30;;;;;;;2.88;1.63;;;;;;;;;;5151929;27;20611;-74
2023/08/16 05:21:56;;;;;;;3.33;1.73;;;;;;;;;;5152140;27;20518;-73
2023/08/16 05:24:23;;;;;;;4.20;1.40;;;;;;;;;;5151816;27;20043;-73
2023/08/16 05:26:50;;;;;;;2.50;1.55;;;;;;;;;;5152342;27;20038;-73
2023/08/16 05:29:17;;;;;;;2.92;1.50;;;;;;;;;;5150546;27;20482;-73
2023/08/16 05:31:44;;;;;;;3.50;1.77;;;;;;;;;;5151680;27;20505;-73
2023/08/16 05:34:10;;;;;;;2.47;1.60;;;;;;;;;;5151591;27;20038;-73
2023/08/16 05:36:50;;;;;;;3.03;1.33;;;;;;;;;;5151968;27;20514;-73
2023/08/16 05:39:19;;;;;;;2.90;1.50;;;;;;;;;;5151549;27;20042;-73
2023/08/16 05:41:46;;;;;;;2.53;1.30;;;;;;;;;;5151796;27;20555;-73
2023/08/16 05:44:13;;;;;;;1.95;1.10;;;;;;;;;;5151276;27;20045;-73
2023/08/16 05:46:39;;;;;;;3.25;1.50;;;;;;;;;;5152011;27;20079;-73
2023/08/16 05:49:06;;;;;;;1.75;1.30;;;;;;;;;;5151511;27;20615;-73
2023/08/16 05:51:33;;;;;;;3.33;1.60;;;;;;;;;;5151614;27;20451;-73
2023/08/16 05:54:01;;;;;;;3.42;1.90;;;;;;;;;;5150322;27;20047;-73
2023/08/16 05:56:28;;;;;;;2.72;1.60;;;;;;;;;;5151465;27;20051;-73
2023/08/16 05:58:57;;;;;;;4.10;1.67;;;;;;;;;;5151411;27;20043;-73
2023/08/16 06:01:24;;;;;;;3.00;1.50;;;;;;;;;;5151408;27;20039;-73
2023/08/16 06:03:52;;;;;;;3.17;1.35;;;;;;;;;;5151179;27;20051;-73
2023/08/16 06:06:21;;;;;;;5.38;1.60;;;;;;;;;;5151166;27;20399;-73
2023/08/16 06:08:47;;;;;;;2.22;1.42;;;;;;;;;;5150929;27;20054;-73
2023/08/16 06:11:16;;;;;;;3.70;1.50;;;;;;;;;;5151030;27;20043;-73
2023/08/16 06:13:43;;;;;;;2.53;1.55;;;;;;;;;;5149841;27;20047;-73
2023/08/16 06:16:10;;;;;;;2.47;1.55;;;;;;;;;;5149951;27;20058;-73
2023/08/16 06:18:37;;;;;;;2.22;1.50;;;;;;;;;;5150994;27;20124;-73
2023/08/16 06:21:03;;;;;;;1.95;1.40;;;;;;;;;;5151378;27;20076;-74
2023/08/16 06:23:30;;;;;;;4.50;1.35;;;;;;;;;;5150553;27;20047;-73
2023/08/16 06:25:56;;;;;;;2.22;1.35;;;;;;;;;;5151033;27;20043;-73
2023/08/16 06:28:23;;;;;;;2.20;1.30;;;;;;;;;;5150752;27;20423;-73
2023/08/16 06:30:53;;;;;;;3.05;1.20;;;;;;;;;;5150982;27;20434;-73
2023/08/16 06:33:22;;;;;;;2.35;1.40;;;;;;;;;;5150651;27;20133;-73
2023/08/16 06:35:51;;;;;;;3.70;1.30;;;;;;;;;;5150861;27;20406;-73
2023/08/16 06:38:18;;;;;;;1.83;1.35;;;;;;;;;;5151007;27;20047;-74
2023/08/16 06:40:47;;;;;;;2.47;1.15;;;;;;;;;;5151022;27;20054;-73
2023/08/16 06:43:13;;;;;;;2.97;1.45;;;;;;;;;;5150259;27;20429;-73
2023/08/16 06:45:40;;;;;;;2.72;1.60;;;;;;;;;;5150658;27;20043;-73
2023/08/16 06:48:07;;;;;;;3.38;1.60;;;;;;;;;;5150753;27;20047;-73
2023/08/16 06:50:34;;;;;;;3.90;1.40;;;;;;;;;;5150829;27;20478;-73
2023/08/16 06:53:01;;;;;;;3.30;1.30;;;;;;;;;;5150567;27;20082;-74
2023/08/16 06:55:28;;;;;;;2.65;1.48;;;;;;;;;;5150536;27;20494;-73
2023/08/16 06:57:55;;;;;;;3.90;1.60;;;;;;;;;;5149612;27;20053;-73
2023/08/16 07:00:24;;;;;;;3.90;1.60;;;;;;;;;;5150386;27;20448;-72
2023/08/16 07:02:54;;;;;;;2.65;1.35;;;;;;;;;;5150595;27;20058;-73
2023/08/16 07:05:21;;;;;;;3.17;1.55;;;;;;;;;;5150874;27;20039;-72
2023/08/16 07:07:49;;;;;;;2.72;1.60;;;;;;;;;;5153304;27;20051;-73
2023/08/16 07:10:16;;;;;;;1.95;1.40;;;;;;;;;;5154658;27;20516;-72
2023/08/16 07:12:44;;;;;;;3.85;1.65;;;;;;;;;;5154542;27;20058;-73
2023/08/16 07:15:14;;;;;;;3.28;1.58;;;;;;;;;;5154326;27;20039;-72
2023/08/16 07:17:40;;;;;;;4.65;1.65;;;;;;;;;;5154702;27;20078;-73
2023/08/16 07:20:07;;;;;;;2.50;1.27;;;;;;;;;;5154580;27;20047;-74
2023/08/16 07:22:37;;;;;;;1.70;1.27;;;;;;;;;;5154716;27;20053;-73
2023/08/16 07:25:07;;;;;;;4.60;1.58;;;;;;;;;;5154634;27;20072;-73
2023/08/16 07:27:34;;;;;;;4.75;1.60;;;;;;;;;;5154748;27;20046;-74
2023/08/16 07:30:04;;;;;;;2.28;1.15;;;;;;;;;;5154428;27;20099;-74
2023/08/16 07:32:34;;;;;;;2.67;1.30;;;;;;;;;;5154414;27;20498;-74
2023/08/16 07:35:01;;;;;;;2.50;1.55;;;;;;;;;;5154001;27;20046;-74
2023/08/16 07:37:31;;;;;;;3.63;1.70;;;;;;;;;;5154248;27;20129;-73
2023/08/16 07:39:58;;;;;;;;;;;;;;;;;;5154599;27;20506;-73
2023/08/16 07:42:25;;;;;;;2.25;1.25;;;;;;;;;;5154545;27;19919;-74
2023/08/16 07:44:53;;;;;;;4.00;1.40;;;;;;;;;;5153153;27;20052;-73
2023/08/16 07:47:20;;;;;;;2.85;1.90;;;;;;;;;;5154360;27;20042;-73
2023/08/16 07:49:47;;;;;;;2.72;1.70;;;;;;;;;;5154081;27;20047;-74
2023/08/16 07:52:13;;;;;;;2.90;1.58;;;;;;;;;;5154071;27;20045;-73
2023/08/16 07:54:40;;;;;;;5.88;2.00;;;;;;;;;;5153750;27;20042;-73
2023/08/16 07:57:07;;;;;;;5.40;1.75;;;;;;;;;;5154014;27;20038;-73
2023/08/16 07:59:36;;;;;;;2.00;1.42;;;;;;;;;;5153736;27;20042;-72
2023/08/16 08:02:05;;;;;;;3.35;1.50;;;;;;;;;;5154123;27;20418;-73
2023/08/16 08:04:33;;;;;;;4.50;1.73;;;;;;;;;;5153804;27;20051;-73
2023/08/16 08:07:00;;;;;;;2.90;1.60;;;;;;;;;;5153814;27;20043;-72
2023/08/16 08:09:27;;;;;;;2.95;1.77;;;;;;;;;;5153421;27;20409;-73
2023/08/16 08:11:54;;;;;;;3.75;1.80;;;;;;;;;;5153388;27;20406;-73
2023/08/16 08:14:20;;;;;;;3.13;1.90;;;;;;;;;;5153520;27;20043;-73
2023/08/16 08:16:47;;;;;;;5.18;1.70;;;;;;;;;;5153169;27;20054;-73
2023/08/16 08:19:14;;;;;;;2.65;1.73;;;;;;;;;;5153058;27;20548;-73
2023/08/16 08:21:41;;;;;;;2.95;1.67;;;;;;;;;;5153440;27;20053;-73
2023/08/16 08:24:07;;;;;;;2.22;1.42;;;;;;;;;;5153171;27;20107;-73
2023/08/16 08:26:35;;;;;;;3.83;1.80;;;;;;;;;;5153039;27;20425;-73
2023/08/16 08:29:02;;;;;;;3.25;1.70;;;;;;;;;;5153268;27;20050;-73
2023/08/16 08:31:29;;;;;;;2.25;1.67;;;;;;;;;;5152837;27;20053;-73
2023/08/16 08:33:56;;;;;;;3.50;1.55;;;;;;;;;;5153030;27;20506;-73
2023/08/16 08:36:25;;;;;;;5.20;1.85;;;;;;;;;;5153120;27;20074;-73
2023/08/16 08:38:52;;;;;;;2.53;1.70;;;;;;;;;;5153404;27;20126;-73
2023/08/16 08:41:21;;;;;;;2.78;1.70;;;;;;;;;;5151586;27;20053;-73
2023/08/16 08:43:56;;;;;;;3.47;1.63;;;;;;;;;;5152990;27;20042;-73
2023/08/16 08:46:31;;;;;;;3.15;1.80;;;;;;;;;;5152549;27;20104;-72
2023/08/16 08:49:02;;;;;;;2.60;1.50;;;;;;;;;;5152836;27;20049;-73
2023/08/16 08:51:33;;;;;;;2.95;1.60;;;;;;;;;;5152917;27;20049;-73
2023/08/16 08:54:00;;;;;;;2.25;1.70;;;;;;;;;;5152997;27;20147;-73
2023/08/16 08:56:27;;;;;;;3.40;1.80;;;;;;;;;;5152604;27;20477;-72
2023/08/16 08:59:00;;;;;;;3.80;1.73;;;;;;;;;;5152795;27;20042;-72
2023/08/16 09:01:42;;;;;;;4.97;1.58;;;;;;;;;;5152344;27;20511;-73
2023/08/16 09:04:10;;;;;;;2.15;1.48;;;;;;;;;;5152569;27;20130;-73
2023/08/16 09:06:38;;;;;;;2.45;1.42;;;;;;;;;;5152463;27;20130;-72
2023/08/16 09:09:06;;;;;;;4.50;1.65;;;;;;;;;;5152389;27;20137;-73
2023/08/16 09:11:34;;;;;;;2.25;1.63;;;;;;;;;;5152557;27;20074;-73
2023/08/16 09:14:03;;;;;;;2.58;1.75;;;;;;;;;;5152664;27;20045;-72
2023/08/16 09:16:31;;;;;;;3.13;1.70;;;;;;;;;;5152147;27;20406;-72
2023/08/16 09:18:57;;;;;;;3.20;1.83;;;;;;;;;;5152606;27;20046;-73
2023/08/16 09:21:24;;;;;;;2.55;1.65;;;;;;;;;;5152198;27;20450;-73
2023/08/16 09:23:58;;;;;;;2.03;1.40;;;;;;;;;;5151881;27;20535;-73
2023/08/16 09:26:28;;;;;;;3.80;1.75;;;;;;;;;;5151672;27;20401;-73
2023/08/16 09:28:59;;;;;;;3.25;1.80;;;;;;;;;;5152224;27;20051;-72
2023/08/16 09:31:32;;;;;;;3.00;1.73;;;;;;;;;;5151697;27;20042;-72
2023/08/16 09:33:59;;;;;;;3.08;1.88;;;;;;;;;;5152678;27;20054;-72
2023/08/16 09:36:29;;;;;;;4.07;1.88;;;;;;;;;;5151794;27;20051;-73
2023/08/16 09:39:01;;;;;;;4.47;2.30;;;;;;;;;;5151691;27;20047;-72
2023/08/16 09:41:29;;;;;;;3.20;1.88;;;;;;;;;;5150336;27;20049;-73
2023/08/16 09:44:06;;;;;;;2.63;1.90;;;;;;;;;;5151965;27;20042;-73
2023/08/16 09:46:34;;;;;;;2.15;1.63;;;;;;;;;;5150455;27;20046;-73
2023/08/16 09:49:08;;;;;;;2.78;1.90;;;;;;;;;;5151922;27;20422;-73
2023/08/16 09:51:38;;;;;;;3.78;2.10;;;;;;;;;;5151588;27;20094;-73
2023/08/16 09:54:14;;;;;;;3.40;2.00;;;;;;;;;;5152101;27;20042;-72
2023/08/16 09:56:44;;;;;;;3.67;2.00;;;;;;;;;;5151260;27;20157;-72
2023/08/16 09:59:15;;;;;;;4.05;1.80;;;;;;;;;;5151511;27;20539;-72
2023/08/16 10:01:45;;;;;;;2.13;1.63;;;;;;;;;;5151464;27;20046;-73
2023/08/16 10:04:16;;;;;;;3.50;1.85;;;;;;;;;;5151810;27;20054;-72
2023/08/16 10:06:46;;;;;;;4.85;1.80;;;;;;;;;;5151439;27;20512;-73
2023/08/16 10:09:16;;;;;;;3.17;1.83;;;;;;;;;;5151321;27;20506;-73
2023/08/16 10:11:44;;;;;;;2.72;1.92;;;;;;;;;;5151331;27;20062;-73
2023/08/16 10:14:12;;;;;;;3.35;1.88;;;;;;;;;;5151169;27;20045;-72
2023/08/16 10:16:39;;;;;;;2.25;1.70;;;;;;;;;;5150704;27;20451;-73
2023/08/16 10:19:10;;;;;;;2.80;1.95;;;;;;;;;;5151486;27;20083;-73
2023/08/16 10:21:43;;;;;;;3.35;2.03;;;;;;;;;;5151081;27;20043;-73
2023/08/16 10:24:13;;;;;;;2.88;1.88;;;;;;;;;;5151055;27;20098;-73
2023/08/16 10:26:41;;;;;;;;;;;;;;;;;;5151338;27;20297;-73
2023/08/16 10:29:11;;;;;;;3.58;1.90;;;;;;;;;;5151252;27;19923;-73
2023/08/16 10:31:45;;;;;;;2.75;1.73;;;;;;;;;;5150839;27;20054;-73
2023/08/16 10:34:14;;;;;;;2.50;1.83;;;;;;;;;;5151115;27;20051;-73
2023/08/16 10:36:42;;;;;;;2.47;1.88;;;;;;;;;;5150541;27;20047;-73
2023/08/16 10:39:21;;;;;;;3.38;1.95;;;;;;;;;;5150908;27;20046;-73
2023/08/16 10:41:50;;;;;;;4.68;1.85;;;;;;;;;;5150476;27;20418;-72
2023/08/16 10:44:24;;;;;;;2.63;1.80;;;;;;;;;;5151081;27;20046;-73
2023/08/16 10:46:51;;;;;;;3.13;1.90;;;;;;;;;;5150818;27;20043;-73
2023/08/16 10:49:20;;;;;;;2.35;1.88;;;;;;;;;;5151109;27;20099;-73
2023/08/16 10:51:52;;;;;;;2.50;1.70;;;;;;;;;;5150575;27;20049;-73
2023/08/16 10:54:30;;;;;;;3.95;2.30;;;;;;;;;;5150590;27;20039;-73
2023/08/16 10:57:02;;;;;;;3.30;2.00;;;;;;;;;;5150843;27;20053;-73
2023/08/16 10:59:39;;;;;;;2.65;1.88;;;;;;;;;;5150903;27;20053;-72
2023/08/16 11:02:18;;;;;;;4.03;2.40;;;;;;;;;;5150756;27;20038;-73
2023/08/16 11:04:46;;;;;;;6.00;1.98;;;;;;;;;;5150989;27;20046;-73
2023/08/16 11:07:14;;;;;;;3.25;2.17;;;;;;;;;;5150316;27;20050;-72
2023/08/16 11:09:42;;;;;;;3.70;2.17;;;;;;;;;;5150700;27;20050;-73
2023/08/16 11:12:09;;;;;;;3.10;1.88;;;;;;;;;;5150602;27;20054;-73
2023/08/16 11:14:36;;;;;;;4.75;2.10;;;;;;;;;;5150507;27;20627;-73
2023/08/16 11:17:03;;;;;;;4.00;2.40;;;;;;;;;;5148923;27;20046;-72
2023/08/16 11:19:31;;;;;;;4.25;2.45;;;;;;;;;;5151049;27;20047;-73
2023/08/16 11:22:01;;;;;;;2.42;1.80;;;;;;;;;;5150861;27;20078;-73
2023/08/16 11:24:29;;;;;;;3.47;2.20;;;;;;;;;;5150805;27;20051;-72
2023/08/16 11:26:56;;;;;;;4.28;2.00;;;;;;;;;;5150397;27;20046;-73
2023/08/16 11:29:23;;;;;;;4.18;1.90;;;;;;;;;;5150681;27;20043;-73
2023/08/16 11:31:55;;;;;;;4.25;1.98;;;;;;;;;;5150590;27;20057;-73
2023/08/16 11:34:23;;;;;;;4.15;2.40;;;;;;;;;;5150793;27;20050;-73
2023/08/16 11:36:49;;;;;;;4.05;1.95;;;;;;;;;;5150165;27;20039;-73
2023/08/16 11:39:16;;;;;;;2.60;1.92;;;;;;;;;;5150402;27;20053;-73
2023/08/16 11:41:43;;;;;;;2.63;1.90;;;;;;;;;;5150208;27;20498;-72
2023/08/16 11:44:11;;;;;;;3.38;2.05;;;;;;;;;;5150055;27;20529;-73
2023/08/16 11:46:43;;;;;;;3.42;2.08;;;;;;;;;;5150212;27;20049;-73
2023/08/16 11:49:14;;;;;;;2.30;1.80;;;;;;;;;;5150261;27;20505;-73
2023/08/16 11:51:42;;;;;;;3.65;2.03;;;;;;;;;;5150542;27;20084;-73
2023/08/16 11:54:29;;;;;;;2.40;2.00;;;;;;;;;;5153314;27;20619;-72
2023/08/16 11:56:56;;;;;;;3.15;2.10;;;;;;;;;;5152968;27;20057;-73
2023/08/16 11:59:31;;;;;;;3.00;1.95;;;;;;;;;;5153931;27;20297;-73
2023/08/16 12:02:06;;;;;;;3.05;2.00;;;;;;;;;;5153827;27;20043;-72
2023/08/16 12:04:32;;;;;;;3.70;2.22;;;;;;;;;;5153816;27;20111;-74
2023/08/16 12:06:59;;;;;;;3.58;2.20;;;;;;;;;;5153670;27;20047;-73
2023/08/16 12:09:26;;;;;;;3.35;1.98;;;;;;;;;;5153778;27;20049;-73
2023/08/16 12:11:53;;;;;;;4.60;2.10;;;;;;;;;;5153945;27;20047;-73
2023/08/16 12:14:20;;;;;;;2.72;1.83;;;;;;;;;;5153559;27;20046;-72
2023/08/16 12:16:46;;;;;;;3.70;2.03;;;;;;;;;;5153284;27;20560;-73
2023/08/16 12:19:19;;;;;;;3.95;2.30;;;;;;;;;;5153211;27;20042;-73
2023/08/16 12:21:46;;;;;;;3.20;1.90;;;;;;;;;;5153729;27;20073;-73
2023/08/16 12:24:13;;;;;;;3.92;2.20;;;;;;;;;;5153121;27;20046;-73
2023/08/16 12:26:42;;;;;;;4.20;2.30;;;;;;;;;;5153731;27;20043;-72
2023/08/16 12:29:09;;;;;;;10.57;2.22;;;;;;;;;;5153359;27;20047;-73
2023/08/16 12:31:38;;;;;;;2.60;1.95;;;;;;;;;;5153377;27;20054;-73
2023/08/16 12:34:06;;;;;;;3.50;2.10;;;;;;;;;;5153322;27;20126;-73
2023/08/16 12:36:33;;;;;;;4.28;1.98;;;;;;;;;;5153195;27;20046;-72
2023/08/16 12:39:00;;;;;;;3.00;1.90;;;;;;;;;;5152869;27;20039;-73
2023/08/16 12:41:26;;;;;;;5.35;2.30;;;;;;;;;;5153064;27;20047;-72
2023/08/16 12:43:53;;;;;;;5.15;2.10;;;;;;;;;;5153051;27;20053;-73
2023/08/16 12:46:20;;;;;;;3.88;2.20;;;;;;;;;;5152755;27;20050;-73
2023/08/16 12:48:46;;;;;;;3.88;2.10;;;;;;;;;;5152900;27;20453;-73
2023/08/16 12:51:13;;;;;;;3.63;2.15;;;;;;;;;;5153069;27;20481;-73
2023/08/16 12:53:44;;;;;;;3.55;2.10;;;;;;;;;;5152526;27;20489;-73
2023/08/16 12:56:15;;;;;;;2.60;2.00;;;;;;;;;;5152951;27;20039;-73
2023/08/16 12:58:41;;;;;;;2.53;1.85;;;;;;;;;;5151304;27;20046;-73
2023/08/16 13:01:11;;;;;;;2.55;1.90;;;;;;;;;;5152968;27;20051;-73
2023/08/16 13:03:44;;;;;;;3.90;2.08;;;;;;;;;;5152216;27;20054;-73
2023/08/16 13:06:26;;;;;;;5.22;2.28;;;;;;;;;;5152874;27;20058;-72
2023/08/16 13:08:58;;;;;;;3.67;2.28;;;;;;;;;;5152355;27;20403;-73
2023/08/16 13:11:28;;;;;;;3.22;2.13;;;;;;;;;;5152514;27;20456;-72
2023/08/16 13:14:06;;;;;;;3.63;2.20;;;;;;;;;;5152010;27;20042;-73
2023/08/16 13:16:34;;;;;;;2.67;2.00;;;;;;;;;;5152524;27;20058;-73
2023/08/16 13:19:12;;;;;;;3.42;1.92;;;;;;;;;;5152523;27;20043;-73
2023/08/16 13:21:46;;;;;;;4.43;2.40;;;;;;;;;;5152759;27;20047;-73
2023/08/16 13:24:16;;;;;;;3.33;2.00;;;;;;;;;;5152133;27;20051;-73
2023/08/16 13:27:03;;;;;;;3.85;2.03;;;;;;;;;;5152237;27;20051;-73
2023/08/16 13:29:43;;;;;;;3.15;2.28;;;;;;;;;;5151938;27;20074;-73
2023/08/16 13:32:15;;;;;;;4.78;2.10;;;;;;;;;;5151961;27;20066;-73
2023/08/16 13:34:47;;;;;;;4.85;2.10;;;;;;;;;;5152131;27;20050;-73
2023/08/16 13:37:17;;;;;;;3.03;2.15;;;;;;;;;;5151582;27;20051;-73
2023/08/16 13:39:47;;;;;;;2.90;2.20;;;;;;;;;;5151967;27;20054;-73
2023/08/16 13:42:28;;;;;;;3.45;2.45;;;;;;;;;;5151832;27;20042;-73
2023/08/16 13:44:57;;;;;;;3.47;2.08;;;;;;;;;;5151745;27;20055;-73
2023/08/16 13:47:27;;;;;;;4.82;2.28;;;;;;;;;;5151919;27;20061;-74
2023/08/16 13:49:54;;;;;;;4.25;2.20;;;;;;;;;;5151406;27;20561;-74
2023/08/16 13:52:20;;;;;;;3.90;2.58;;;;;;;;;;5151531;27;20662;-74
2023/08/16 13:54:47;;;;;;;3.83;2.50;;;;;;;;;;5151779;27;20050;-74
2023/08/16 13:57:14;;;;;;;3.20;2.20;;;;;;;;;;5151562;27;20423;-74
2023/08/16 13:59:43;;;;;;;3.92;2.53;;;;;;;;;;5151685;27;20046;-74
2023/08/16 14:02:10;;;;;;;5.43;2.70;;;;;;;;;;5151864;27;20265;-73
2023/08/16 14:04:37;;;;;;;4.47;2.38;;;;;;;;;;5151219;27;20071;-74
2023/08/16 14:07:04;;;;;;;4.25;2.35;;;;;;;;;;5151151;27;20038;-73
2023/08/16 14:09:31;;;;;;;3.88;2.38;;;;;;;;;;5150890;27;20585;-74
2023/08/16 14:11:58;;;;;;;3.92;2.60;;;;;;;;;;5151249;27;20079;-74
2023/08/16 14:14:24;;;;;;;4.18;2.40;;;;;;;;;;5151290;27;20042;-73
2023/08/16 14:16:51;;;;;;;4.35;2.58;;;;;;;;;;5150691;27;20039;-73
2023/08/16 14:19:18;;;;;;;3.72;2.40;;;;;;;;;;5151234;27;20043;-73
2023/08/16 14:21:45;;;;;;;5.20;2.45;;;;;;;;;;5151208;27;20043;-73
2023/08/16 14:24:13;;;;;;;3.53;2.25;;;;;;;;;;5150520;27;20506;-73
2023/08/16 14:26:40;;;;;;;4.00;2.30;;;;;;;;;;5150956;27;20046;-73
2023/08/16 14:29:10;;;;;;;4.35;2.60;;;;;;;;;;5150981;27;20050;-73
2023/08/16 14:31:36;;;;;;;8.38;2.50;;;;;;;;;;5150940;27;20632;-74
2023/08/16 14:34:03;;;;;;;3.60;2.30;;;;;;;;;;5151170;27;20127;-74
2023/08/16 14:36:30;;;;;;;4.40;2.40;;;;;;;;;;5151269;27;20051;-73
2023/08/16 14:38:58;;;;;;;5.75;2.25;;;;;;;;;;5150501;27;20054;-73
2023/08/16 14:41:26;;;;;;;3.85;2.22;;;;;;;;;;5151195;27;20053;-73
2023/08/16 14:43:53;;;;;;;4.00;2.38;;;;;;;;;;5150553;27;20095;-73
2023/08/16 14:46:21;;;;;;;2.90;2.30;;;;;;;;;;5151054;27;20049;-73
2023/08/16 14:48:52;;;;;;;3.92;2.45;;;;;;;;;;5150589;27;20625;-74
2023/08/16 14:51:21;;;;;;;;;;;;;;;;;;5151898;27;20068;-73
2023/08/16 14:53:48;;;;;;;3.28;2.40;;;;;;;;;;5150769;27;20017;-73